Time,TemperatureF,DewpointF,PressureIn,WindDirection,WindDirectionDegrees,WindSpeedMPH,WindSpeedGustMPH,Humidity,HourlyPrecipIn,Conditions,Clouds,dailyrainin,SolarRadiationWatts/m^2,SoftwareType,DateUTC
2013-08-14 00:00:00,60.3,46.4,29.94,East,98,10.0,34.0,60,0.00,,,0.00,88,Wunderground v.1.15,2013-08-14 06:00:00,
2013-08-14 00:06:00,59.0,48.8,29.93,East,95,11.0,34.0,69,0.00,,,0.00,84,Wunderground v.1.15,2013-08-14 06:06:00,
2013-08-14 00:12:00,57.3,49.1,29.94,East,97,11.0,13.0,74,0.00,,,0.00,79,Wunderground v.1.15,2013-08-14 06:12:00,
2013-08-14 00:18:00,57.4,48.4,29.94,ESE,106,12.0,34.0,72,0.00,,,0.00,77,Wunderground v.1.15,2013-08-14 06:18:00,
2013-08-14 00:24:00,57.2,50.1,29.94,ESE,110,13.0,34.0,77,0.00,,,0.00,77,Wunderground v.1.15,2013-08-14 06:24:00,
2013-08-14 00:30:00,57.1,49.6,29.94,ESE,111,11.0,11.0,76,0.00,,,0.00,76,Wunderground v.1.15,2013-08-14 06:30:00,
2013-08-14 00:36:00,57.1,50.0,29.92,ESE,106,10.0,34.0,77,0.00,,,0.00,76,Wunderground v.1.15,2013-08-14 06:36:00,
2013-08-14 00:42:00,57.3,49.8,29.94,ESE,104,10.0,34.0,76,0.00,,,0.00,76,Wunderground v.1.15,2013-08-14 06:42:00,
2013-08-14 00:48:00,56.6,49.8,29.93,East,100,9.0,34.0,78,0.00,,,0.00,74,Wunderground v.1.15,2013-08-14 06:48:00,
2013-08-14 00:54:00,56.5,50.1,29.94,ESE,112,9.0,34.0,79,0.00,,,0.00,72,Wunderground v.1.15,2013-08-14 06:54:00,
2013-08-14 01:00:00,56.9,49.4,29.93,ESE,117,10.0,10.0,76,0.00,,,0.00,74,Wunderground v.1.15,2013-08-14 07:00:00,
2013-08-14 01:06:00,57.1,49.2,29.94,ESE,110,10.0,34.0,75,0.00,,,0.00,74,Wunderground v.1.15,2013-08-14 07:06:00,
2013-08-14 01:12:00,56.9,48.7,29.95,ESE,117,10.0,34.0,74,0.00,,,0.00,74,Wunderground v.1.15,2013-08-14 07:12:00,
2013-08-14 01:18:00,57.5,48.5,29.94,ESE,112,9.0,34.0,72,0.00,,,0.00,76,Wunderground v.1.15,2013-08-14 07:18:00,
2013-08-14 01:24:00,57.5,47.4,29.95,ESE,120,9.0,34.0,69,0.00,,,0.00,76,Wunderground v.1.15,2013-08-14 07:24:00,
2013-08-14 01:30:00,57.0,47.7,29.95,ESE,109,8.0,8.0,71,0.00,,,0.00,76,Wunderground v.1.15,2013-08-14 07:30:00,
2013-08-14 01:36:00,57.2,48.6,29.95,ESE,108,6.0,34.0,73,0.00,,,0.00,74,Wunderground v.1.15,2013-08-14 07:36:00,
2013-08-14 01:42:00,57.3,49.1,29.94,East,97,5.0,34.0,74,0.00,,,0.00,74,Wunderground v.1.15,2013-08-14 07:42:00,
2013-08-14 01:48:00,57.4,48.4,29.95,ENE,68,6.0,34.0,72,0.00,,,0.00,76,Wunderground v.1.15,2013-08-14 07:48:00,
2013-08-14 01:54:00,57.1,47.8,29.94,ENE,71,8.0,34.0,71,0.00,,,0.00,74,Wunderground v.1.15,2013-08-14 07:54:00,
2013-08-14 02:02:00,56.8,47.5,29.95,ENE,59,7.0,12.0,71,0.00,,,0.00,74,Wunderground v.1.15,2013-08-14 08:02:00,
2013-08-14 02:08:00,56.8,47.1,29.95,ENE,59,4.0,12.0,70,0.00,,,0.00,72,Wunderground v.1.15,2013-08-14 08:08:00,
2013-08-14 02:14:00,57.2,45.9,29.93,ESE,106,5.0,12.0,66,0.00,,,0.00,74,Wunderground v.1.15,2013-08-14 08:14:00,
2013-08-14 02:20:00,57.4,47.7,29.94,ENE,66,7.0,7.0,70,0.00,,,0.00,74,Wunderground v.1.15,2013-08-14 08:20:00,
2013-08-14 02:26:00,57.3,46.8,29.93,ENE,63,7.0,12.0,68,0.00,,,0.00,74,Wunderground v.1.15,2013-08-14 08:26:00,
2013-08-14 02:32:00,57.3,46.8,29.94,ENE,74,5.0,12.0,68,0.00,,,0.00,74,Wunderground v.1.15,2013-08-14 08:32:00,
2013-08-14 02:38:00,57.7,46.4,29.94,East,88,7.0,12.0,66,0.00,,,0.00,76,Wunderground v.1.15,2013-08-14 08:38:00,
2013-08-14 02:44:00,58.1,46.0,29.92,East,84,8.0,12.0,64,0.00,,,0.00,77,Wunderground v.1.15,2013-08-14 08:44:00,
2013-08-14 02:50:00,58.1,46.0,29.93,East,89,9.0,12.0,64,0.00,,,0.00,77,Wunderground v.1.15,2013-08-14 08:50:00,
2013-08-14 02:56:00,58.0,45.9,29.93,East,95,10.0,12.0,64,0.00,,,0.00,79,Wunderground v.1.15,2013-08-14 08:56:00,
2013-08-14 03:02:00,57.2,47.9,29.92,ESE,108,10.0,12.0,71,0.00,,,0.00,77,Wunderground v.1.15,2013-08-14 09:02:00,
2013-08-14 03:08:00,55.3,47.9,29.93,East,95,9.0,12.0,76,0.00,,,0.00,72,Wunderground v.1.15,2013-08-14 09:08:00,
2013-08-14 03:14:00,54.5,47.4,29.93,East,97,8.0,12.0,77,0.00,,,0.00,69,Wunderground v.1.15,2013-08-14 09:14:00,
2013-08-14 03:20:00,54.0,47.0,29.92,East,100,9.0,12.0,77,0.00,,,0.00,67,Wunderground v.1.15,2013-08-14 09:20:00,
2013-08-14 03:26:00,54.5,47.4,29.94,East,101,9.0,12.0,77,0.00,,,0.00,67,Wunderground v.1.15,2013-08-14 09:26:00,
2013-08-14 03:32:00,54.8,47.0,29.94,ESE,103,8.0,12.0,75,0.00,,,0.00,67,Wunderground v.1.15,2013-08-14 09:32:00,
2013-08-14 03:38:00,54.5,46.4,29.93,ESE,114,7.0,12.0,74,0.00,,,0.00,67,Wunderground v.1.15,2013-08-14 09:38:00,
2013-08-14 03:44:00,54.2,46.1,29.94,ESE,108,8.0,12.0,74,0.00,,,0.00,65,Wunderground v.1.15,2013-08-14 09:44:00,
2013-08-14 03:50:00,54.0,47.3,29.93,East,90,8.0,12.0,78,0.00,,,0.00,65,Wunderground v.1.15,2013-08-14 09:50:00,
2013-08-14 03:56:00,54.7,44.7,29.92,ENE,76,9.0,12.0,69,0.00,,,0.00,65,Wunderground v.1.15,2013-08-14 09:56:00,
2013-08-14 04:02:00,55.4,45.0,29.93,East,97,11.0,14.0,68,0.00,,,0.00,67,Wunderground v.1.15,2013-08-14 10:02:00,
2013-08-14 04:08:00,55.5,44.7,29.94,ENE,67,13.0,14.0,67,0.00,,,0.00,69,Wunderground v.1.15,2013-08-14 10:08:00,
2013-08-14 04:14:00,55.4,45.0,29.92,ENE,70,11.0,13.0,68,0.00,,,0.00,69,Wunderground v.1.15,2013-08-14 10:14:00,
2013-08-14 04:20:00,55.1,46.2,29.94,ENE,72,9.0,9.0,72,0.00,,,0.00,69,Wunderground v.1.15,2013-08-14 10:20:00,
2013-08-14 04:26:00,55.0,46.1,29.94,ENE,66,7.0,12.0,72,0.00,,,0.00,67,Wunderground v.1.15,2013-08-14 10:26:00,
2013-08-14 04:32:00,55.9,44.3,29.92,ENE,59,9.0,12.0,65,0.00,,,0.00,69,Wunderground v.1.15,2013-08-14 10:32:00,
2013-08-14 04:38:00,56.8,46.7,29.93,ESE,110,11.0,12.0,69,0.00,,,0.00,72,Wunderground v.1.15,2013-08-14 10:38:00,
2013-08-14 04:44:00,55.1,45.5,29.93,ESE,105,12.0,13.0,70,0.00,,,0.00,70,Wunderground v.1.15,2013-08-14 10:44:00,
2013-08-14 04:50:00,54.3,45.5,29.93,ENE,68,12.0,12.0,72,0.00,,,0.00,67,Wunderground v.1.15,2013-08-14 10:50:00,
2013-08-14 04:56:00,54.8,44.4,29.93,ENE,73,12.0,13.0,68,0.00,,,0.00,69,Wunderground v.1.15,2013-08-14 10:56:00,
2013-08-14 05:02:00,55.5,45.1,29.93,ENE,75,12.0,13.0,68,0.00,,,0.00,69,Wunderground v.1.15,2013-08-14 11:02:00,
2013-08-14 05:08:00,55.1,46.2,29.92,East,92,11.0,14.0,72,0.00,,,0.00,69,Wunderground v.1.15,2013-08-14 11:08:00,
2013-08-14 05:14:00,54.1,45.6,29.92,ESE,102,11.0,14.0,73,0.00,,,0.00,67,Wunderground v.1.15,2013-08-14 11:14:00,
2013-08-14 05:20:00,53.5,45.1,29.92,East,93,13.0,13.0,73,0.00,,,0.00,65,Wunderground v.1.15,2013-08-14 11:20:00,
2013-08-14 05:26:00,53.7,45.2,29.91,East,98,15.0,17.0,73,0.00,,,0.00,63,Wunderground v.1.15,2013-08-14 11:26:00,
2013-08-14 05:32:00,53.5,45.4,29.91,East,101,16.0,17.0,74,0.00,,,0.00,63,Wunderground v.1.15,2013-08-14 11:32:00,
2013-08-14 05:38:00,53.0,44.9,29.90,ESE,102,17.0,18.0,74,0.00,,,0.00,63,Wunderground v.1.15,2013-08-14 11:38:00,
2013-08-14 05:44:00,53.3,46.3,29.92,ESE,114,16.0,17.0,77,0.00,,,0.00,63,Wunderground v.1.15,2013-08-14 11:44:00,
2013-08-14 05:50:00,51.9,44.6,29.92,East,101,15.0,15.0,76,0.00,,,0.00,60,Wunderground v.1.15,2013-08-14 11:50:00,
2013-08-14 05:58:00,51.5,44.9,29.92,ESE,106,15.0,16.0,78,0.00,,,0.00,58,Wunderground v.1.15,2013-08-14 11:58:00,
2013-08-14 06:04:00,51.4,44.8,29.92,ESE,104,14.0,20.0,78,0.00,,,0.00,56,Wunderground v.1.15,2013-08-14 12:04:00,
2013-08-14 06:10:00,51.6,45.3,29.92,ESE,102,14.0,20.0,79,0.00,,,0.00,56,Wunderground v.1.15,2013-08-14 12:10:00,
2013-08-14 06:16:00,52.0,45.7,29.92,East,101,14.0,20.0,79,0.00,,,0.00,114,Wunderground v.1.15,2013-08-14 12:16:00,
2013-08-14 06:24:00,52.3,45.6,29.92,East,88,10.0,20.0,78,0.00,,,0.00,109,Wunderground v.1.15,2013-08-14 12:24:00,
2013-08-14 06:34:00,52.2,45.5,29.93,ESE,105,7.0,20.0,78,0.00,,,0.00,33,Wunderground v.1.15,2013-08-14 12:34:00,
2013-08-14 06:42:00,51.5,45.2,29.93,ESE,106,9.0,20.0,79,0.00,,,0.00,32,Wunderground v.1.15,2013-08-14 12:42:00,
2013-08-14 06:48:00,51.3,45.0,29.93,East,93,9.0,20.0,79,0.00,,,0.00,9,Wunderground v.1.15,2013-08-14 12:48:00,
2013-08-14 06:54:00,51.2,45.2,29.93,East,95,9.0,20.0,80,0.00,,,0.00,0,Wunderground v.1.15,2013-08-14 12:54:00,
2013-08-14 07:00:00,51.2,45.2,29.93,East,100,10.0,20.0,80,0.00,,,0.00,0,Wunderground v.1.15,2013-08-14 13:00:00,
2013-08-14 07:08:00,51.3,45.0,29.92,East,99,12.0,20.0,79,0.00,,,0.00,0,Wunderground v.1.15,2013-08-14 13:08:00,
2013-08-14 07:14:00,51.1,44.8,29.93,East,95,12.0,20.0,79,0.00,,,0.00,0,Wunderground v.1.15,2013-08-14 13:14:00,
2013-08-14 07:22:00,51.5,45.9,29.91,East,95,10.0,20.0,81,0.00,,,0.00,0,Wunderground v.1.15,2013-08-14 13:22:00,
2013-08-14 07:28:00,51.9,45.6,29.93,ESE,104,8.0,20.0,79,0.00,,,0.00,0,Wunderground v.1.15,2013-08-14 13:28:00,
2013-08-14 07:34:00,52.4,45.7,29.93,East,91,7.0,20.0,78,0.00,,,0.00,0,Wunderground v.1.15,2013-08-14 13:34:00,
2013-08-14 07:42:00,53.1,46.1,29.94,East,93,6.0,20.0,77,0.00,,,0.00,0,Wunderground v.1.15,2013-08-14 13:42:00,
2013-08-14 07:48:00,53.4,47.0,29.94,NE,43,4.0,20.0,79,0.00,,,0.00,0,Wunderground v.1.15,2013-08-14 13:48:00,
2013-08-14 07:54:00,53.4,46.7,29.94,NNW,330,4.0,20.0,78,0.00,,,0.00,0,Wunderground v.1.15,2013-08-14 13:54:00,
2013-08-14 08:02:00,53.5,47.1,29.94,NNW,329,4.0,20.0,79,0.00,,,0.00,0,Wunderground v.1.15,2013-08-14 14:02:00,
2013-08-14 08:08:00,53.9,47.5,29.94,NNW,329,3.0,20.0,79,0.00,,,0.00,0,Wunderground v.1.15,2013-08-14 14:08:00,
2013-08-14 08:14:00,54.2,47.8,29.92,NNW,329,2.0,20.0,79,0.00,,,0.00,0,Wunderground v.1.15,2013-08-14 14:14:00,
2013-08-14 08:20:00,54.8,47.7,29.94,NNW,329,2.0,20.0,77,0.00,,,0.00,0,Wunderground v.1.15,2013-08-14 14:20:00,
2013-08-14 08:30:00,55.5,48.4,29.94,NNW,329,3.0,20.0,77,0.00,,,0.00,0,Wunderground v.1.15,2013-08-14 14:30:00,
2013-08-14 08:36:00,56.0,48.5,29.92,WNW,294,4.0,20.0,76,0.00,,,0.00,0,Wunderground v.1.15,2013-08-14 14:36:00,
2013-08-14 08:42:00,56.1,47.9,29.94,WNW,285,5.0,20.0,74,0.00,,,0.00,0,Wunderground v.1.15,2013-08-14 14:42:00,
2013-08-14 08:48:00,56.7,48.5,29.92,WNW,285,5.0,20.0,74,0.00,,,0.00,0,Wunderground v.1.15,2013-08-14 14:48:00,
2013-08-14 08:56:00,57.1,47.8,29.94,NW,309,4.0,20.0,71,0.00,,,0.00,0,Wunderground v.1.15,2013-08-14 14:56:00,
2013-08-14 09:02:00,57.3,48.3,29.94,WNW,293,5.0,20.0,72,0.00,,,0.00,0,Wunderground v.1.15,2013-08-14 15:02:00,
2013-08-14 09:08:00,57.9,48.2,29.92,WNW,294,5.0,20.0,70,0.00,,,0.00,0,Wunderground v.1.15,2013-08-14 15:08:00,
2013-08-14 09:14:00,58.6,47.7,29.94,WNW,294,4.0,20.0,67,0.00,,,0.00,0,Wunderground v.1.15,2013-08-14 15:14:00,
2013-08-14 09:20:00,59.2,47.0,29.94,WNW,293,4.0,20.0,64,0.00,,,0.00,0,Wunderground v.1.15,2013-08-14 15:20:00,
2013-08-14 09:26:00,59.6,47.8,29.93,WNW,293,4.0,20.0,65,0.00,,,0.00,0,Wunderground v.1.15,2013-08-14 15:26:00,
2013-08-14 09:32:00,59.9,48.1,29.93,WSW,258,5.0,20.0,65,0.00,,,0.00,0,Wunderground v.1.15,2013-08-14 15:32:00,
2013-08-14 09:38:00,60.2,48.4,29.94,WSW,254,7.0,20.0,65,0.00,,,0.00,0,Wunderground v.1.15,2013-08-14 15:38:00,
2013-08-14 09:44:00,60.4,49.4,29.93,West,264,8.0,20.0,67,0.00,,,0.00,0,Wunderground v.1.15,2013-08-14 15:44:00,
2013-08-14 09:54:00,60.7,49.3,29.92,West,280,9.0,20.0,66,0.00,,,0.00,0,Wunderground v.1.15,2013-08-14 15:54:00,
2013-08-14 10:00:00,61.3,49.4,29.92,West,275,9.0,9.0,65,0.00,,,0.00,0,Wunderground v.1.15,2013-08-14 16:00:00,
2013-08-14 10:06:00,61.5,48.4,29.92,West,266,9.0,20.0,62,0.00,,,0.00,0,Wunderground v.1.15,2013-08-14 16:06:00,
2013-08-14 10:12:00,61.6,48.9,29.92,West,275,9.0,20.0,63,0.00,,,0.00,0,Wunderground v.1.15,2013-08-14 16:12:00,
2013-08-14 10:18:00,61.7,48.5,29.92,West,265,10.0,20.0,62,0.00,,,0.00,0,Wunderground v.1.15,2013-08-14 16:18:00,
2013-08-14 10:24:00,61.7,49.8,29.92,WSW,258,11.0,20.0,65,0.00,,,0.00,0,Wunderground v.1.15,2013-08-14 16:24:00,
2013-08-14 10:30:00,62.0,48.8,29.92,West,271,10.0,20.0,62,0.00,,,0.00,0,Wunderground v.1.15,2013-08-14 16:30:00,
2013-08-14 10:36:00,62.4,49.2,29.92,WSW,257,9.0,20.0,62,0.00,,,0.00,0,Wunderground v.1.15,2013-08-14 16:36:00,
2013-08-14 10:42:00,62.6,49.0,29.92,West,260,9.0,20.0,61,0.00,,,0.00,0,Wunderground v.1.15,2013-08-14 16:42:00,
2013-08-14 10:48:00,63.1,49.0,29.92,WSW,245,9.0,20.0,60,0.00,,,0.00,0,Wunderground v.1.15,2013-08-14 16:48:00,
2013-08-14 10:54:00,63.7,50.0,29.92,WSW,249,8.0,20.0,61,0.00,,,0.00,0,Wunderground v.1.15,2013-08-14 16:54:00,
2013-08-14 11:00:00,64.3,49.2,29.92,West,262,7.0,13.0,58,0.00,,,0.00,0,Wunderground v.1.15,2013-08-14 17:00:00,
2013-08-14 11:06:00,64.6,49.9,29.91,WSW,252,7.0,13.0,59,0.00,,,0.00,0,Wunderground v.1.15,2013-08-14 17:06:00,
2013-08-14 11:12:00,65.1,49.0,29.91,WSW,252,6.0,13.0,56,0.00,,,0.00,0,Wunderground v.1.15,2013-08-14 17:12:00,
2013-08-14 11:18:00,65.7,48.1,29.91,WSW,245,6.0,13.0,53,0.00,,,0.00,0,Wunderground v.1.15,2013-08-14 17:18:00,
2013-08-14 11:24:00,66.3,49.2,29.91,WSW,243,6.0,13.0,54,0.00,,,0.00,0,Wunderground v.1.15,2013-08-14 17:24:00,
2013-08-14 11:32:00,67.0,49.8,29.91,SW,232,6.0,13.0,54,0.00,,,0.00,0,Wunderground v.1.15,2013-08-14 17:32:00,
2013-08-14 11:38:00,67.6,49.9,29.91,SW,229,6.0,13.0,53,0.00,,,0.00,0,Wunderground v.1.15,2013-08-14 17:38:00,
2013-08-14 11:44:00,68.1,49.8,29.90,SW,229,6.0,13.0,52,0.00,,,0.00,0,Wunderground v.1.15,2013-08-14 17:44:00,
2013-08-14 11:50:00,68.4,48.5,29.90,SW,235,7.0,7.0,49,0.00,,,0.00,0,Wunderground v.1.15,2013-08-14 17:50:00,
2013-08-14 11:56:00,68.9,49.5,29.90,WSW,246,6.0,13.0,50,0.00,,,0.00,0,Wunderground v.1.15,2013-08-14 17:56:00,
2013-08-14 12:02:00,69.3,49.3,29.90,SW,228,6.0,13.0,49,0.00,,,0.00,0,Wunderground v.1.15,2013-08-14 18:02:00,
2013-08-14 12:08:00,69.8,48.1,29.90,SW,234,6.0,13.0,46,0.00,,,0.00,0,Wunderground v.1.15,2013-08-14 18:08:00,
2013-08-14 12:14:00,70.2,49.6,29.89,SW,236,7.0,13.0,48,0.00,,,0.00,0,Wunderground v.1.15,2013-08-14 18:14:00,
2013-08-14 12:22:00,70.9,50.2,29.89,SW,235,7.0,13.0,48,0.00,,,0.00,0,Wunderground v.1.15,2013-08-14 18:22:00,
2013-08-14 12:28:00,71.4,50.7,29.89,WSW,240,7.0,13.0,48,0.00,,,0.00,0,Wunderground v.1.15,2013-08-14 18:28:00,
2013-08-14 12:34:00,71.9,49.4,29.89,WSW,249,7.0,13.0,45,0.00,,,0.00,0,Wunderground v.1.15,2013-08-14 18:34:00,
2013-08-14 12:40:00,72.3,47.9,29.89,SW,235,6.0,13.0,42,0.00,,,0.00,0,Wunderground v.1.15,2013-08-14 18:40:00,
2013-08-14 12:46:00,72.9,49.1,29.88,WSW,249,6.0,13.0,43,0.00,,,0.00,0,Wunderground v.1.15,2013-08-14 18:46:00,
2013-08-14 12:52:00,73.3,46.2,29.88,WSW,247,6.0,13.0,38,0.00,,,0.00,0,Wunderground v.1.15,2013-08-14 18:52:00,
2013-08-14 12:58:00,73.5,47.0,29.88,WSW,250,6.0,13.0,39,0.00,,,0.00,0,Wunderground v.1.15,2013-08-14 18:58:00,
2013-08-14 13:04:00,74.0,48.8,29.87,WSW,240,5.0,13.0,41,0.00,,,0.00,0,Wunderground v.1.15,2013-08-14 19:04:00,
2013-08-14 13:12:00,74.8,48.2,29.86,WSW,240,5.0,13.0,39,0.00,,,0.00,0,Wunderground v.1.15,2013-08-14 19:12:00,
2013-08-14 13:18:00,75.2,48.5,29.86,WSW,249,4.0,13.0,39,0.00,,,0.00,0,Wunderground v.1.15,2013-08-14 19:18:00,
2013-08-14 13:26:00,75.7,46.8,29.85,West,260,5.0,13.0,36,0.00,,,0.00,0,Wunderground v.1.15,2013-08-14 19:26:00,
2013-08-14 13:32:00,76.1,48.6,29.85,WSW,248,6.0,13.0,38,0.00,,,0.00,0,Wunderground v.1.15,2013-08-14 19:32:00,
2013-08-14 13:38:00,76.5,47.6,29.85,West,260,6.0,13.0,36,0.00,,,0.00,0,Wunderground v.1.15,2013-08-14 19:38:00,
2013-08-14 13:44:00,77.3,42.6,29.85,West,266,5.0,13.0,29,0.00,,,0.00,0,Wunderground v.1.15,2013-08-14 19:44:00,
2013-08-14 13:52:00,78.2,44.2,29.84,West,268,5.0,13.0,30,0.00,,,0.00,0,Wunderground v.1.15,2013-08-14 19:52:00,
2013-08-14 13:58:00,78.5,45.3,29.84,West,259,5.0,13.0,31,0.00,,,0.00,0,Wunderground v.1.15,2013-08-14 19:58:00,
2013-08-14 14:04:00,78.6,41.8,29.84,WSW,258,6.0,13.0,27,0.00,,,0.00,0,Wunderground v.1.15,2013-08-14 20:04:00,
2013-08-14 14:10:00,79.1,47.5,29.84,WNW,289,5.0,13.0,33,0.00,,,0.00,0,Wunderground v.1.15,2013-08-14 20:10:00,
2013-08-14 14:16:00,79.4,39.4,29.84,West,275,5.0,13.0,24,0.00,,,0.00,0,Wunderground v.1.15,2013-08-14 20:16:00,
2013-08-14 14:24:00,79.8,42.8,29.83,West,275,5.0,13.0,27,0.00,,,0.00,0,Wunderground v.1.15,2013-08-14 20:24:00,
2013-08-14 14:30:00,79.6,42.7,29.83,WNW,289,8.0,8.0,27,0.00,,,0.00,0,Wunderground v.1.15,2013-08-14 20:30:00,
2013-08-14 14:36:00,79.5,43.5,29.83,WNW,285,9.0,13.0,28,0.00,,,0.00,0,Wunderground v.1.15,2013-08-14 20:36:00,
2013-08-14 14:44:00,79.8,44.7,29.83,WNW,299,8.0,13.0,29,0.00,,,0.00,0,Wunderground v.1.15,2013-08-14 20:44:00,
2013-08-14 14:50:00,79.9,44.8,29.83,West,267,8.0,13.0,29,0.00,,,0.00,0,Wunderground v.1.15,2013-08-14 20:50:00,
2013-08-14 14:56:00,79.9,42.9,29.83,WSW,251,8.0,13.0,27,0.00,,,0.00,0,Wunderground v.1.15,2013-08-14 20:56:00,
2013-08-14 15:02:00,79.7,41.8,29.83,WSW,239,9.0,16.0,26,0.00,,,0.00,0,Wunderground v.1.15,2013-08-14 21:02:00,
2013-08-14 15:08:00,79.9,42.9,29.83,West,275,8.0,16.0,27,0.00,,,0.00,0,Wunderground v.1.15,2013-08-14 21:08:00,
2013-08-14 15:14:00,80.2,47.7,29.82,West,270,7.0,16.0,32,0.00,,,0.00,0,Wunderground v.1.15,2013-08-14 21:14:00,
2013-08-14 15:20:00,79.9,43.9,29.82,West,275,9.0,16.0,28,0.00,,,0.00,0,Wunderground v.1.15,2013-08-14 21:20:00,
2013-08-14 15:26:00,79.6,45.4,29.82,West,264,11.0,16.0,30,0.00,,,0.00,0,Wunderground v.1.15,2013-08-14 21:26:00,
2013-08-14 15:32:00,79.3,43.4,29.82,West,271,13.0,16.0,28,0.00,,,0.00,0,Wunderground v.1.15,2013-08-14 21:32:00,
2013-08-14 15:38:00,79.5,44.5,29.82,WSW,245,12.0,17.0,29,0.00,,,0.00,0,Wunderground v.1.15,2013-08-14 21:38:00,
2013-08-14 15:48:00,79.7,41.8,29.82,West,275,12.0,16.0,26,0.00,,,0.00,0,Wunderground v.1.15,2013-08-14 21:48:00,
2013-08-14 15:54:00,80.1,46.7,29.82,West,259,11.0,19.0,31,0.00,,,0.00,0,Wunderground v.1.15,2013-08-14 21:54:00,
2013-08-14 16:02:00,79.6,43.6,29.81,WSW,253,15.0,16.0,28,0.00,,,0.00,0,Wunderground v.1.15,2013-08-14 22:02:00,
2013-08-14 16:08:00,79.7,44.6,29.81,West,261,13.0,16.0,29,0.00,,,0.00,0,Wunderground v.1.15,2013-08-14 22:08:00,
2013-08-14 16:14:00,79.6,44.5,29.81,West,270,13.0,16.0,29,0.00,,,0.00,0,Wunderground v.1.15,2013-08-14 22:14:00,
2013-08-14 16:20:00,79.7,48.0,29.81,WSW,251,13.0,16.0,33,0.00,,,0.00,0,Wunderground v.1.15,2013-08-14 22:20:00,
2013-08-14 16:26:00,79.6,45.4,29.81,West,267,14.0,16.0,30,0.00,,,0.00,0,Wunderground v.1.15,2013-08-14 22:26:00,
2013-08-14 16:32:00,79.5,40.6,29.81,West,265,13.0,16.0,25,0.00,,,0.00,0,Wunderground v.1.15,2013-08-14 22:32:00,
2013-08-14 16:38:00,79.6,46.3,29.81,West,260,13.0,17.0,31,0.00,,,0.00,0,Wunderground v.1.15,2013-08-14 22:38:00,
2013-08-14 16:44:00,79.5,45.3,29.81,West,266,14.0,16.0,30,0.00,,,0.00,0,Wunderground v.1.15,2013-08-14 22:44:00,
2013-08-14 16:50:00,79.6,47.1,29.81,West,275,14.0,14.0,32,0.00,,,0.00,0,Wunderground v.1.15,2013-08-14 22:50:00,
2013-08-14 16:56:00,79.5,47.9,29.81,West,268,12.0,16.0,33,0.00,,,0.00,0,Wunderground v.1.15,2013-08-14 22:56:00,
2013-08-14 17:02:00,79.6,44.5,29.81,West,271,13.0,16.0,29,0.00,,,0.00,0,Wunderground v.1.15,2013-08-14 23:02:00,
2013-08-14 17:08:00,79.4,44.4,29.81,West,264,13.0,16.0,29,0.00,,,0.00,0,Wunderground v.1.15,2013-08-14 23:08:00,
2013-08-14 17:14:00,79.4,44.4,29.81,West,268,13.0,16.0,29,0.00,,,0.00,0,Wunderground v.1.15,2013-08-14 23:14:00,
2013-08-14 17:20:00,79.6,44.5,29.80,West,268,12.0,12.0,29,0.00,,,0.00,0,Wunderground v.1.15,2013-08-14 23:20:00,
2013-08-14 17:26:00,79.6,42.7,29.80,West,266,12.0,16.0,27,0.00,,,0.00,0,Wunderground v.1.15,2013-08-14 23:26:00,
2013-08-14 17:32:00,79.6,44.5,29.80,West,265,14.0,16.0,29,0.00,,,0.00,0,Wunderground v.1.15,2013-08-14 23:32:00,
2013-08-14 17:38:00,79.4,43.4,29.80,West,262,13.0,16.0,28,0.00,,,0.00,0,Wunderground v.1.15,2013-08-14 23:38:00,
2013-08-14 17:46:00,79.3,44.3,29.80,West,264,11.0,16.0,29,0.00,,,0.00,0,Wunderground v.1.15,2013-08-14 23:46:00,
2013-08-14 17:52:00,79.4,44.4,29.80,West,265,10.0,16.0,29,0.00,,,0.00,0,Wunderground v.1.15,2013-08-14 23:52:00,
2013-08-14 17:58:00,79.3,42.4,29.80,West,262,10.0,16.0,27,0.00,,,0.00,0,Wunderground v.1.15,2013-08-14 23:58:00,
2013-08-14 18:04:00,79.5,47.1,29.80,West,265,9.0,16.0,32,0.00,,,0.00,0,Wunderground v.1.15,2013-08-15 00:04:00,
2013-08-14 18:10:00,79.6,46.3,29.80,West,267,9.0,16.0,31,0.00,,,0.00,0,Wunderground v.1.15,2013-08-15 00:10:00,
2013-08-14 18:16:00,79.9,47.4,29.80,West,270,10.0,16.0,32,0.00,,,0.00,0,Wunderground v.1.15,2013-08-15 00:16:00,
2013-08-14 18:22:00,80.2,48.5,29.80,West,268,9.0,16.0,33,0.00,,,0.00,0,Wunderground v.1.15,2013-08-15 00:22:00,
2013-08-14 18:28:00,80.0,44.0,29.80,West,262,10.0,16.0,28,0.00,,,0.00,0,Wunderground v.1.15,2013-08-15 00:28:00,
2013-08-14 18:34:00,80.0,43.0,29.80,West,264,11.0,16.0,27,0.00,,,0.00,0,Wunderground v.1.15,2013-08-15 00:34:00,
2013-08-14 18:40:00,79.8,44.7,29.79,West,280,11.0,16.0,29,0.00,,,0.00,0,Wunderground v.1.15,2013-08-15 00:40:00,
2013-08-14 18:46:00,79.8,49.7,29.79,West,280,11.0,16.0,35,0.00,,,0.00,0,Wunderground v.1.15,2013-08-15 00:46:00,
2013-08-14 18:52:00,79.5,40.6,29.79,WNW,298,11.0,16.0,25,0.00,,,0.00,0,Wunderground v.1.15,2013-08-15 00:52:00,
2013-08-14 18:58:00,80.0,44.9,29.79,WNW,290,11.0,16.0,29,0.00,,,0.00,0,Wunderground v.1.15,2013-08-15 00:58:00,
2013-08-14 19:04:00,79.4,51.6,29.79,WNW,290,8.0,16.0,38,0.00,,,0.00,0,Wunderground v.1.15,2013-08-15 01:04:00,
2013-08-14 19:10:00,79.0,49.0,29.79,WNW,285,7.0,7.0,35,0.00,,,0.00,0,Wunderground v.1.15,2013-08-15 01:10:00,
2013-08-14 19:16:00,78.8,46.4,29.78,West,262,7.0,16.0,32,0.00,,,0.00,0,Wunderground v.1.15,2013-08-15 01:16:00,
2013-08-14 19:22:00,79.1,44.1,29.78,West,271,9.0,16.0,29,0.00,,,0.00,0,Wunderground v.1.15,2013-08-15 01:22:00,
2013-08-14 19:28:00,79.2,44.2,29.79,West,280,11.0,16.0,29,0.00,,,0.00,0,Wunderground v.1.15,2013-08-15 01:28:00,
2013-08-14 19:34:00,78.8,46.4,29.78,West,267,11.0,16.0,32,0.00,,,0.00,0,Wunderground v.1.15,2013-08-15 01:34:00,
2013-08-14 19:40:00,78.4,43.5,29.79,West,266,12.0,16.0,29,0.00,,,0.00,0,Wunderground v.1.15,2013-08-15 01:40:00,
2013-08-14 19:48:00,77.9,46.5,29.79,West,264,11.0,16.0,33,0.00,,,0.00,0,Wunderground v.1.15,2013-08-15 01:48:00,
2013-08-14 19:54:00,77.4,47.6,29.79,West,268,10.0,16.0,35,0.00,,,0.00,0,Wunderground v.1.15,2013-08-15 01:54:00,
2013-08-14 20:00:00,76.8,46.3,29.79,West,266,9.0,14.0,34,0.00,,,0.00,0,Wunderground v.1.15,2013-08-15 02:00:00,
2013-08-14 20:06:00,76.6,46.9,29.79,West,265,10.0,14.0,35,0.00,,,0.00,11,Wunderground v.1.15,2013-08-15 02:06:00,
2013-08-14 20:12:00,76.7,44.6,29.79,West,275,10.0,14.0,32,0.00,,,0.00,26,Wunderground v.1.15,2013-08-15 02:12:00,
2013-08-14 20:18:00,76.7,47.7,29.79,West,275,8.0,14.0,36,0.00,,,0.00,47,Wunderground v.1.15,2013-08-15 02:18:00,
2013-08-14 20:24:00,76.3,50.2,29.79,West,275,8.0,14.0,40,0.00,,,0.00,84,Wunderground v.1.15,2013-08-15 02:24:00,
2013-08-14 20:30:00,75.8,47.7,29.79,West,271,7.0,14.0,37,0.00,,,0.00,116,Wunderground v.1.15,2013-08-15 02:30:00,
2013-08-14 20:38:00,75.1,48.4,29.79,West,275,7.0,14.0,39,0.00,,,0.00,146,Wunderground v.1.15,2013-08-15 02:38:00,
2013-08-14 20:46:00,74.6,47.3,29.79,West,270,7.0,14.0,38,0.00,,,0.00,153,Wunderground v.1.15,2013-08-15 02:46:00,
2013-08-14 20:52:00,74.0,48.1,29.79,West,260,8.0,15.0,40,0.00,,,0.00,155,Wunderground v.1.15,2013-08-15 02:52:00,
2013-08-14 21:00:00,73.6,49.7,29.80,WSW,245,11.0,11.0,43,0.00,,,0.00,156,Wunderground v.1.15,2013-08-15 03:00:00,
2013-08-14 21:06:00,72.3,53.2,29.80,WSW,250,9.0,14.0,51,0.00,,,0.00,149,Wunderground v.1.15,2013-08-15 03:06:00,
2013-08-14 21:12:00,70.9,52.4,29.80,WSW,245,8.0,14.0,52,0.00,,,0.00,142,Wunderground v.1.15,2013-08-15 03:12:00,
2013-08-14 21:22:00,69.3,50.4,29.80,WSW,249,7.0,14.0,51,0.00,,,0.00,132,Wunderground v.1.15,2013-08-15 03:22:00,
2013-08-14 21:28:00,68.9,50.0,29.81,WSW,249,6.0,14.0,51,0.00,,,0.00,128,Wunderground v.1.15,2013-08-15 03:28:00,
2013-08-14 21:34:00,68.7,50.4,29.81,WSW,249,3.0,14.0,52,0.00,,,0.00,125,Wunderground v.1.15,2013-08-15 03:34:00,
2013-08-14 21:40:00,68.5,49.7,29.81,WSW,249,1.0,14.0,51,0.00,,,0.00,120,Wunderground v.1.15,2013-08-15 03:40:00,
2013-08-14 21:46:00,68.3,48.4,29.81,WSW,249,3.0,14.0,49,0.00,,,0.00,118,Wunderground v.1.15,2013-08-15 03:46:00,
2013-08-14 21:56:00,68.1,48.2,29.82,WSW,249,4.0,14.0,49,0.00,,,0.00,118,Wunderground v.1.15,2013-08-15 03:56:00,
2013-08-14 22:02:00,67.9,47.5,29.82,WSW,249,3.0,14.0,48,0.00,,,0.00,118,Wunderground v.1.15,2013-08-15 04:02:00,
2013-08-14 22:04:00,67.9,48.0,29.82,WSW,249,3.0,14.0,49,0.00,,,0.00,116,Wunderground v.1.15,2013-08-15 04:04:00,
2013-08-14 22:08:00,67.7,49.9,29.82,East,93,2.0,14.0,53,0.00,,,0.00,114,Wunderground v.1.15,2013-08-15 04:08:00,
2013-08-14 22:16:00,67.0,50.8,29.82,East,95,6.0,14.0,56,0.00,,,0.00,114,Wunderground v.1.15,2013-08-15 04:16:00,
2013-08-14 22:24:00,66.0,48.4,29.82,ESE,112,7.0,14.0,53,0.00,,,0.00,113,Wunderground v.1.15,2013-08-15 04:24:00,
2013-08-14 22:26:00,65.8,50.6,29.82,ESE,115,7.0,14.0,58,0.00,,,0.00,113,Wunderground v.1.15,2013-08-15 04:26:00,
2013-08-14 22:32:00,65.2,50.0,29.82,ESE,106,9.0,14.0,58,0.00,,,0.00,111,Wunderground v.1.15,2013-08-15 04:32:00,
2013-08-14 22:38:00,64.4,48.8,29.83,East,91,10.0,14.0,57,0.00,,,0.00,107,Wunderground v.1.15,2013-08-15 04:38:00,
2013-08-14 22:46:00,65.3,48.7,29.83,East,81,9.0,14.0,55,0.00,,,0.00,109,Wunderground v.1.15,2013-08-15 04:46:00,
2013-08-14 22:52:00,65.0,50.8,29.83,East,87,9.0,14.0,60,0.00,,,0.00,109,Wunderground v.1.15,2013-08-15 04:52:00,
2013-08-14 22:58:00,64.8,49.7,29.83,East,88,8.0,14.0,58,0.00,,,0.00,107,Wunderground v.1.15,2013-08-15 04:58:00,
2013-08-14 23:04:00,65.0,46.4,29.83,East,88,6.0,14.0,51,0.00,,,0.00,107,Wunderground v.1.15,2013-08-15 05:04:00,
2013-08-14 23:10:00,65.7,43.2,29.83,East,88,5.0,14.0,44,0.00,,,0.00,109,Wunderground v.1.15,2013-08-15 05:10:00,
2013-08-14 23:16:00,66.3,43.1,29.83,East,88,5.0,14.0,43,0.00,,,0.00,111,Wunderground v.1.15,2013-08-15 05:16:00,
2013-08-14 23:22:00,65.9,48.8,29.83,ESE,110,5.0,14.0,54,0.00,,,0.00,113,Wunderground v.1.15,2013-08-15 05:22:00,
2013-08-14 23:28:00,64.5,47.0,29.83,ESE,108,7.0,14.0,53,0.00,,,0.00,109,Wunderground v.1.15,2013-08-15 05:28:00,
2013-08-14 23:34:00,63.9,47.4,29.83,ESE,104,9.0,14.0,55,0.00,,,0.00,105,Wunderground v.1.15,2013-08-15 05:34:00,
2013-08-14 23:40:00,63.0,45.6,29.83,East,100,11.0,11.0,53,0.00,,,0.00,102,Wunderground v.1.15,2013-08-15 05:40:00,
2013-08-14 23:46:00,62.2,44.9,29.83,East,88,9.0,14.0,53,0.00,,,0.00,98,Wunderground v.1.15,2013-08-15 05:46:00,
2013-08-14 23:52:00,61.4,46.5,29.83,East,87,8.0,14.0,58,0.00,,,0.00,95,Wunderground v.1.15,2013-08-15 05:52:00,
2013-08-14 23:58:00,61.0,46.1,29.83,East,83,8.0,14.0,58,0.00,,,0.00,91,Wunderground v.1.15,2013-08-15 05:58:00,